Time;durP1;ratioP1;P1;durP2;ratioP2;P2;SDS_P1;SDS_P2;PMS_P1;PMS_P2;Temp;Humidity;BMP_temperature;BMP_pressure;BME280_temperature;BME280_humidity;BME280_pressure;Samples;Min_cycle;Max_cycle;Signal;HPM_P1;HPM_P2
2024/02/04 00:01:09;;;;;;;0.57;0.57;;;;;;;8.48;100.00;99008.19;15289068;19;20846;-58
2024/02/04 00:06:33;;;;;;;1.05;0.90;;;;;;;8.46;100.00;98990.50;15290118;19;20384;-57
2024/02/04 00:12:07;;;;;;;0.40;0.40;;;;;;;8.47;100.00;98981.47;15288947;19;20021;-57
2024/02/04 00:17:33;;;;;;;1.35;0.57;;;;;;;8.48;100.00;99010.06;15284746;19;20010;-58
2024/02/04 00:22:58;;;;;;;1.25;0.60;;;;;;;8.52;100.00;99011.50;15284569;19;20019;-57
2024/02/04 00:28:27;;;;;;;0.82;0.63;;;;;;;8.55;100.00;99015.75;15284342;19;20022;-56
2024/02/04 00:33:51;;;;;;;0.80;0.80;;;;;;;8.58;100.00;99016.31;15280241;19;20018;-55
2024/02/04 00:39:16;;;;;;;0.73;0.73;;;;;;;8.59;100.00;99004.59;15286264;19;20097;-58
2024/02/04 00:44:43;;;;;;;0.85;0.70;;;;;;;8.60;100.00;98995.56;15277643;19;20028;-58
2024/02/04 00:50:09;;;;;;;1.67;0.90;;;;;;;8.59;100.00;98969.69;15285823;19;20041;-57
2024/02/04 00:55:35;;;;;;;1.90;1.10;;;;;;;8.57;100.00;98966.28;15282229;19;20023;-53
2024/02/04 01:01:02;;;;;;;2.35;1.00;;;;;;;8.57;100.00;98963.59;15283746;19;20010;-55
2024/02/04 01:06:29;;;;;;;1.45;1.10;;;;;;;8.58;100.00;98967.97;15279510;19;20022;-56
2024/02/04 01:12:13;;;;;;;1.33;1.10;;;;;;;8.58;100.00;98938.44;15286817;19;20017;-55
2024/02/04 01:17:42;;;;;;;1.23;1.10;;;;;;;8.59;100.00;98940.13;15285773;19;20515;-59
2024/02/04 01:23:08;;;;;;;1.30;0.90;;;;;;;8.56;100.00;98945.78;15287794;19;20102;-60
2024/02/04 01:28:33;;;;;;;1.20;1.10;;;;;;;8.53;100.00;98947.88;15277164;19;20118;-59
2024/02/04 01:34:00;;;;;;;1.15;1.05;;;;;;;8.52;100.00;98951.56;15288849;19;20041;-60
2024/02/04 01:39:25;;;;;;;1.15;1.05;;;;;;;8.55;100.00;98956.66;15281481;19;20082;-60
2024/02/04 01:44:50;;;;;;;1.13;0.80;;;;;;;8.57;100.00;98941.25;15278788;19;20014;-59
2024/02/04 01:50:19;;;;;;;0.93;0.90;;;;;;;8.57;100.00;98939.41;15282619;19;20476;-59
2024/02/04 01:55:44;;;;;;;1.40;0.82;;;;;;;8.55;100.00;98913.69;15283536;19;20014;-58
2024/02/04 02:01:08;;;;;;;0.80;0.60;;;;;;;8.52;100.00;98917.50;15276886;19;20018;-59
2024/02/04 02:06:43;;;;;;;0.60;0.60;;;;;;;8.57;100.00;98925.97;15273778;19;20483;-58
2024/02/04 02:12:14;;;;;;;0.60;0.60;;;;;;;8.59;100.00;98915.97;15281994;19;20057;-56
2024/02/04 02:17:54;;;;;;;0.95;0.75;;;;;;;8.61;100.00;98932.78;15022233;19;5000822;-60
2024/02/04 02:23:28;;;;;;;0.70;0.70;;;;;;;8.64;100.00;98916.38;15282907;19;20089;-58
2024/02/04 02:28:56;;;;;;;1.98;0.80;;;;;;;8.56;100.00;98913.53;15276805;19;20763;-59
2024/02/04 02:34:21;;;;;;;0.80;0.80;;;;;;;8.44;100.00;98915.47;15276542;19;20014;-60
2024/02/04 02:40:03;;;;;;;1.25;0.90;;;;;;;8.33;100.00;98937.88;15289163;19;20025;-57
2024/02/04 02:45:31;;;;;;;0.93;0.82;;;;;;;8.35;100.00;98951.16;15291538;19;20490;-59
2024/02/04 02:50:58;;;;;;;0.88;0.88;;;;;;;8.40;100.00;98958.81;15290290;19;20029;-58
2024/02/04 02:56:23;;;;;;;0.90;0.90;;;;;;;8.42;100.00;98956.84;15290398;19;20021;-60
2024/02/04 03:01:51;;;;;;;0.85;0.70;;;;;;;8.47;100.00;98960.84;15291735;19;20022;-58
2024/02/04 03:07:22;;;;;;;1.17;0.90;;;;;;;8.53;100.00;98926.41;15284438;19;20022;-60
2024/02/04 03:12:48;;;;;;;0.98;0.90;;;;;;;8.46;100.00;98931.44;15291707;19;20017;-57
2024/02/04 03:18:15;;;;;;;1.23;1.13;;;;;;;8.40;100.00;98923.94;15296970;19;20618;-59
2024/02/04 03:23:40;;;;;;;2.63;1.30;;;;;;;8.31;100.00;98915.66;15289066;19;20042;-59
2024/02/04 03:29:06;;;;;;;1.33;1.10;;;;;;;8.26;100.00;98923.28;15282563;19;20020;-61
2024/02/04 03:34:35;;;;;;;1.65;1.20;;;;;;;8.21;100.00;98927.38;15283445;19;20011;-60
2024/02/04 03:40:00;;;;;;;1.55;1.23;;;;;;;8.17;100.00;98924.09;15287211;19;20019;-56
2024/02/04 03:45:25;;;;;;;1.58;1.20;;;;;;;8.16;100.00;98933.13;15290913;19;20471;-60
2024/02/04 03:50:53;;;;;;;1.75;1.20;;;;;;;8.15;100.00;98934.13;14775560;19;10000859;-60
2024/02/04 03:56:18;;;;;;;1.38;1.23;;;;;;;8.15;100.00;98928.75;15289559;19;20022;-56
2024/02/04 04:01:43;;;;;;;1.10;1.00;;;;;;;8.14;100.00;98927.06;15289173;19;20022;-58
2024/02/04 04:07:10;;;;;;;1.30;1.00;;;;;;;8.12;100.00;98902.16;15281424;19;20028;-59
2024/02/04 04:12:35;;;;;;;0.90;0.80;;;;;;;8.15;100.00;98907.28;15290486;19;20015;-59
2024/02/04 04:18:00;;;;;;;1.25;0.93;;;;;;;8.18;100.00;98904.31;15285503;19;20027;-57
2024/02/04 04:23:27;;;;;;;1.45;0.80;;;;;;;8.23;100.00;98890.50;15290727;19;20041;-60
2024/02/04 04:28:52;;;;;;;0.70;0.70;;;;;;;8.29;100.00;98893.47;15279122;19;20041;-55
2024/02/04 04:34:18;;;;;;;1.35;0.93;;;;;;;8.36;100.00;98887.59;15283370;19;20014;-60
2024/02/04 04:39:45;;;;;;;1.30;0.80;;;;;;;8.46;100.00;98885.78;15280389;19;20050;-60
2024/02/04 04:45:11;;;;;;;0.50;0.50;;;;;;;8.53;100.00;98889.63;15284091;19;20086;-60
2024/02/04 04:50:36;;;;;;;0.80;0.70;;;;;;;8.57;100.00;98874.97;15281414;19;20022;-59
2024/02/04 04:56:03;;;;;;;0.63;0.63;;;;;;;8.57;100.00;98853.47;15285646;19;20025;-60
2024/02/04 05:01:29;;;;;;;0.47;0.30;;;;;;;8.63;100.00;98861.00;15278085;19;20372;-62
2024/02/04 05:07:00;;;;;;;0.50;0.50;;;;;;;8.67;100.00;98844.59;15268431;19;20015;-58
2024/02/04 05:12:29;;;;;;;1.08;0.40;;;;;;;8.67;100.00;98831.16;15277707;19;20408;-61
2024/02/04 05:17:54;;;;;;;0.40;0.40;;;;;;;8.69;100.00;98834.56;15286212;19;20081;-61
2024/02/04 05:23:19;;;;;;;0.32;0.32;;;;;;;8.72;100.00;98815.47;15285284;19;20082;-61
2024/02/04 05:28:46;;;;;;;0.30;0.30;;;;;;;8.73;100.00;98809.13;15284824;19;20018;-60
2024/02/04 05:34:12;;;;;;;0.22;0.20;;;;;;;8.71;100.00;98816.47;15286633;19;20014;-62
2024/02/04 05:39:36;;;;;;;0.65;0.20;;;;;;;8.68;100.00;98814.03;15276996;19;20031;-61
2024/02/04 05:45:03;;;;;;;0.25;0.25;;;;;;;8.54;100.00;98810.78;15275016;19;20082;-62
2024/02/04 05:50:28;;;;;;;0.25;0.22;;;;;;;8.39;100.00;98828.25;15278349;19;20014;-62
2024/02/04 05:55:53;;;;;;;0.57;0.30;;;;;;;8.30;100.00;98827.22;15283018;19;20498;-63
2024/02/04 06:01:20;;;;;;;0.47;0.10;;;;;;;8.25;100.00;98829.47;15283270;19;20098;-61
2024/02/04 06:06:51;;;;;;;0.17;0.10;;;;;;;8.29;100.00;98838.94;15274298;19;20022;-62
2024/02/04 06:12:16;;;;;;;0.20;0.20;;;;;;;8.29;100.00;98834.41;15285156;19;20018;-62
2024/02/04 06:17:43;;;;;;;0.40;0.10;;;;;;;8.34;100.00;98842.09;15241343;19;20011;-63
2024/02/04 06:23:08;;;;;;;0.40;0.10;;;;;;;8.37;100.00;98831.06;15295063;19;20412;-63
2024/02/04 06:28:32;;;;;;;0.10;0.10;;;;;;;8.34;100.00;98807.19;15288578;19;20016;-62
2024/02/04 06:34:01;;;;;;;0.10;0.10;;;;;;;8.34;100.00;98809.88;15292515;19;20025;-62
2024/02/04 06:39:25;;;;;;;0.00;0.00;;;;;;;8.41;100.00;98847.75;15292100;19;20484;-63
2024/02/04 06:44:51;;;;;;;0.20;0.10;;;;;;;8.48;100.00;98839.03;15293290;19;20553;-62
2024/02/04 06:50:19;;;;;;;0.10;0.10;;;;;;;8.52;100.00;98823.50;15288405;19;20025;-63
2024/02/04 06:55:44;;;;;;;0.10;0.10;;;;;;;8.52;100.00;98823.50;15287690;19;20015;-61
2024/02/04 07:01:08;;;;;;;0.08;0.08;;;;;;;8.48;100.00;98797.91;15291515;19;20093;-62
2024/02/04 07:06:43;;;;;;;0.10;0.00;;;;;;;8.51;100.00;98804.84;15286571;19;20037;-60
2024/02/04 07:12:08;;;;;;;0.00;0.00;;;;;;;8.47;100.00;98801.56;15293268;19;20026;-58
2024/02/04 07:17:33;;;;;;;0.38;0.08;;;;;;;8.45;100.00;98812.44;15297848;19;20485;-59
2024/02/04 07:23:00;;;;;;;0.55;0.00;;;;;;;8.48;100.00;98808.66;15288211;19;20018;-60
2024/02/04 07:28:25;;;;;;;0.70;0.10;;;;;;;8.47;100.00;98809.59;15284542;19;20701;-56
2024/02/04 07:33:50;;;;;;;0.52;0.10;;;;;;;8.49;100.00;98818.41;15292968;19;20598;-55
2024/02/04 07:39:17;;;;;;;0.00;0.00;;;;;;;8.53;100.00;98814.44;15284567;19;20018;-58
2024/02/04 07:44:42;;;;;;;0.10;0.08;;;;;;;8.60;100.00;98807.53;15284672;19;20078;-59
2024/02/04 07:50:06;;;;;;;0.08;0.00;;;;;;;8.64;100.00;98811.63;15287439;19;20042;-59
2024/02/04 07:55:33;;;;;;;0.10;0.10;;;;;;;8.75;100.00;98799.09;15284470;19;20018;-59
2024/02/04 08:00:58;;;;;;;0.15;0.10;;;;;;;8.80;100.00;98780.69;15287389;19;20386;-58
2024/02/04 08:06:23;;;;;;;0.57;0.30;;;;;;;8.88;100.00;98780.00;15275554;19;20029;-59
2024/02/04 08:11:50;;;;;;;0.25;0.20;;;;;;;8.93;100.00;98800.06;15286273;19;20367;-59
2024/02/04 08:17:17;;;;;;;0.20;0.20;;;;;;;9.04;100.00;98757.91;15288722;19;20015;-58
2024/02/04 08:22:41;;;;;;;0.47;0.30;;;;;;;9.13;100.00;98753.53;15287588;19;20019;-55
2024/02/04 08:28:08;;;;;;;0.50;0.50;;;;;;;9.23;100.00;98724.78;15287150;19;20018;-55
2024/02/04 08:33:33;;;;;;;1.10;0.40;;;;;;;9.33;100.00;98708.63;15287567;19;20015;-58
2024/02/04 08:38:58;;;;;;;0.20;0.20;;;;;;;9.40;100.00;98699.84;15284228;19;20014;-57
2024/02/04 08:44:25;;;;;;;0.70;0.35;;;;;;;9.44;100.00;98689.63;15284905;19;20037;-56
2024/02/04 08:49:57;;;;;;;0.25;0.10;;;;;;;9.47;100.00;98692.00;15281585;19;20477;-55
2024/02/04 08:55:22;;;;;;;0.10;0.10;;;;;;;9.48;100.00;98698.25;15283638;19;20038;-58
2024/02/04 09:00:49;;;;;;;0.10;0.10;;;;;;;9.47;100.00;98716.19;15284911;19;20014;-54
2024/02/04 09:06:15;;;;;;;0.28;0.10;;;;;;;9.46;100.00;98708.28;15283584;19;20082;-58
2024/02/04 09:11:41;;;;;;;0.10;0.10;;;;;;;9.47;100.00;98716.19;15284588;19;20089;-55
2024/02/04 09:17:13;;;;;;;0.17;0.10;;;;;;;9.44;100.00;98695.00;15286440;19;20003;-55
2024/02/04 09:22:39;;;;;;;0.70;0.30;;;;;;;9.43;100.00;98695.13;15286092;19;20009;-57
2024/02/04 09:28:03;;;;;;;0.20;0.10;;;;;;;9.45;100.00;98711.97;15287481;19;20014;-55
2024/02/04 09:33:30;;;;;;;0.20;0.20;;;;;;;9.48;100.00;98715.22;15286538;19;20582;-59
2024/02/04 09:38:55;;;;;;;0.30;0.30;;;;;;;9.49;100.00;98718.75;15283452;19;20093;-60
2024/02/04 09:44:20;;;;;;;0.80;0.20;;;;;;;9.51;100.00;98711.41;15276921;19;20495;-58
2024/02/04 09:49:48;;;;;;;0.52;0.30;;;;;;;9.56;100.00;98672.31;15275401;19;20825;-56
2024/02/04 09:55:15;;;;;;;0.63;0.40;;;;;;;9.58;100.00;98672.16;15285708;19;20029;-59
2024/02/04 10:00:44;;;;;;;0.60;0.50;;;;;;;9.63;100.00;98652.88;15279025;19;20022;-59
2024/02/04 10:06:13;;;;;;;1.48;0.40;;;;;;;9.72;100.00;98654.66;15280943;19;20025;-58
2024/02/04 10:11:37;;;;;;;0.40;0.40;;;;;;;9.79;100.00;98638.75;15275353;19;20021;-58
2024/02/04 10:17:02;;;;;;;0.40;0.40;;;;;;;9.84;100.00;98612.25;15280572;19;20010;-59
2024/02/04 10:22:30;;;;;;;0.40;0.40;;;;;;;9.97;100.00;98603.78;15284087;19;20018;-60
2024/02/04 10:27:57;;;;;;;0.30;0.30;;;;;;;10.04;100.00;98604.88;15277427;19;20011;-56
2024/02/04 10:33:23;;;;;;;0.52;0.30;;;;;;;10.14;100.00;98580.56;15280188;19;20011;-54
2024/02/04 10:38:51;;;;;;;0.80;0.47;;;;;;;10.24;100.00;98573.25;15276739;19;20593;-59
2024/02/04 10:44:17;;;;;;;0.32;0.20;;;;;;;10.29;100.00;98576.34;15285526;19;20045;-58
2024/02/04 10:49:53;;;;;;;0.75;0.32;;;;;;;10.32;100.00;98564.38;15282601;19;20313;-58
2024/02/04 10:55:27;;;;;;;0.50;0.30;;;;;;;10.33;100.00;98539.16;15285011;19;20094;-59
2024/02/04 11:00:54;;;;;;;2.20;0.25;;;;;;;10.37;100.00;98551.31;15295321;19;20726;-56
2024/02/04 11:06:21;;;;;;;0.30;0.30;;;;;;;10.36;100.00;98540.69;15287808;19;20047;-59
2024/02/04 11:11:49;;;;;;;0.25;0.25;;;;;;;10.32;100.00;98542.84;15295161;19;20018;-55
2024/02/04 11:17:40;;;;;;;0.10;0.10;;;;;;;10.33;100.00;98531.06;15294071;19;20018;-54
2024/02/04 11:23:28;;;;;;;0.27;0.27;;;;;;;10.38;100.00;98577.28;15293421;19;20472;-56
2024/02/04 11:28:57;;;;;;;0.10;0.10;;;;;;;10.27;100.00;98527.16;15288835;19;20014;-55
2024/02/04 11:34:22;;;;;;;0.22;0.20;;;;;;;10.17;100.00;98551.47;15300336;19;20054;-57
2024/02/04 11:39:58;;;;;;;0.20;0.20;;;;;;;10.03;100.00;98565.50;15289608;19;20036;-51
2024/02/04 11:45:25;;;;;;;1.00;0.20;;;;;;;9.52;100.00;98587.53;15295596;19;20033;-58
2024/02/04 11:50:55;;;;;;;3.08;0.40;;;;;;;9.00;100.00;98616.75;15332839;19;20007;-62
2024/02/04 11:56:20;;;;;;;0.57;0.50;;;;;;;8.76;100.00;98626.19;15295803;19;20006;-63
2024/02/04 12:01:48;;;;;;;0.40;0.40;;;;;;;8.67;100.00;98660.13;15289749;19;20073;-65
2024/02/04 12:07:19;;;;;;;0.60;0.40;;;;;;;8.61;100.00;98685.69;15268536;19;20015;-62
2024/02/04 12:12:44;;;;;;;0.20;0.20;;;;;;;8.55;100.00;98702.38;15281837;19;20074;-63
2024/02/04 12:18:19;;;;;;;0.38;0.20;;;;;;;8.55;100.00;98706.91;15290388;19;20426;-61
2024/02/04 12:23:45;;;;;;;0.38;0.20;;;;;;;8.59;100.00;98713.66;15286683;19;20023;-62
2024/02/04 12:29:09;;;;;;;0.90;0.30;;;;;;;8.62;100.00;98700.84;15282979;19;20010;-62
2024/02/04 12:34:37;;;;;;;0.20;0.10;;;;;;;8.71;100.00;98690.22;15293589;19;20041;-58
2024/02/04 12:40:02;;;;;;;0.15;0.10;;;;;;;8.82;100.00;98734.91;15284082;19;20021;-60
2024/02/04 12:45:29;;;;;;;0.40;0.10;;;;;;;8.88;100.00;98673.34;15280075;19;20495;-58
2024/02/04 12:50:56;;;;;;;1.65;0.30;;;;;;;8.91;100.00;98673.06;15277224;19;20018;-61
2024/02/04 12:56:22;;;;;;;0.35;0.20;;;;;;;8.93;100.00;98695.28;15278016;19;20014;-60
2024/02/04 13:01:47;;;;;;;0.32;0.32;;;;;;;8.88;100.00;98689.47;15283090;19;20029;-60
2024/02/04 13:07:22;;;;;;;0.43;0.40;;;;;;;8.78;100.00;98683.25;15287860;19;20019;-58
2024/02/04 13:12:47;;;;;;;0.30;0.30;;;;;;;8.71;100.00;98682.16;15285761;19;20039;-59
2024/02/04 13:18:15;;;;;;;0.60;0.40;;;;;;;8.68;100.00;98674.38;15278588;19;20045;-59
2024/02/04 13:23:42;;;;;;;0.75;0.30;;;;;;;8.69;100.00;98663.50;15285471;19;20010;-57
2024/02/04 13:29:08;;;;;;;0.30;0.30;;;;;;;8.68;100.00;98685.97;15285319;19;20025;-61
2024/02/04 13:34:34;;;;;;;0.20;0.20;;;;;;;8.69;100.00;98668.88;15287575;19;20073;-61
2024/02/04 13:40:01;;;;;;;0.20;0.20;;;;;;;8.74;100.00;98655.00;15284238;19;20077;-61
2024/02/04 13:45:26;;;;;;;0.10;0.10;;;;;;;8.90;100.00;98673.22;15278905;19;20014;-60
2024/02/04 13:50:50;;;;;;;0.40;0.10;;;;;;;9.04;100.00;98685.34;15280363;19;20022;-60
2024/02/04 13:56:18;;;;;;;0.20;0.20;;;;;;;9.15;100.00;98690.56;15282201;19;20042;-60
2024/02/04 14:01:43;;;;;;;0.20;0.20;;;;;;;9.21;100.00;98695.38;15282286;19;20014;-61
2024/02/04 14:07:14;;;;;;;0.43;0.20;;;;;;;9.15;100.00;98669.06;15282676;19;20086;-61
2024/02/04 14:12:45;;;;;;;0.20;0.20;;;;;;;9.03;100.00;98665.69;15282092;19;20015;-61
2024/02/04 14:18:09;;;;;;;0.50;0.30;;;;;;;8.89;100.00;98664.28;15283193;19;20031;-60
2024/02/04 14:23:35;;;;;;;0.68;0.45;;;;;;;8.80;100.00;98670.53;15279098;19;21157;-61
2024/02/04 14:29:02;;;;;;;0.30;0.30;;;;;;;8.74;100.00;98669.28;15272326;19;20805;-62
2024/02/04 14:34:28;;;;;;;1.17;0.70;;;;;;;8.68;100.00;98698.53;15289601;19;20014;-60
2024/02/04 14:39:52;;;;;;;0.73;0.60;;;;;;;8.64;100.00;98723.00;15291833;19;20089;-61
2024/02/04 14:45:21;;;;;;;0.60;0.60;;;;;;;8.61;100.00;98701.81;15291235;19;20085;-60
2024/02/04 14:50:48;;;;;;;2.78;0.70;;;;;;;8.57;100.00;98719.19;15286046;19;21165;-59
2024/02/04 14:56:13;;;;;;;1.42;0.60;;;;;;;8.56;100.00;98713.97;15042863;19;5001044;-60
2024/02/04 15:01:40;;;;;;;0.35;0.20;;;;;;;8.54;100.00;98718.63;15293739;19;20028;-61
2024/02/04 15:07:12;;;;;;;0.13;0.13;;;;;;;8.53;100.00;98712.41;15294528;19;20027;-61
2024/02/04 15:12:38;;;;;;;0.40;0.40;;;;;;;8.53;100.00;98704.34;15290469;19;20100;-61
2024/02/04 15:18:06;;;;;;;0.32;0.30;;;;;;;8.54;100.00;98697.97;15295669;19;20046;-62
2024/02/04 15:23:32;;;;;;;1.20;0.40;;;;;;;8.51;100.00;98687.53;15279748;19;20501;-59
2024/02/04 15:28:58;;;;;;;0.30;0.30;;;;;;;8.51;100.00;98687.53;15290925;19;20135;-63
2024/02/04 15:34:31;;;;;;;0.57;0.45;;;;;;;8.51;100.00;98679.50;15291757;19;20026;-58
2024/02/04 15:39:56;;;;;;;0.40;0.40;;;;;;;8.50;100.00;98669.75;15291946;19;20069;-60
2024/02/04 15:45:21;;;;;;;0.50;0.50;;;;;;;8.48;100.00;98671.72;15293301;19;20411;-60
2024/02/04 15:50:49;;;;;;;0.50;0.50;;;;;;;8.47;100.00;98664.59;15286054;19;20017;-59
2024/02/04 15:56:15;;;;;;;0.50;0.45;;;;;;;8.45;100.00;98655.84;15275666;19;20494;-60
2024/02/04 16:01:45;;;;;;;1.23;0.50;;;;;;;8.44;100.00;98646.97;15284602;19;20033;-60
2024/02/04 16:07:21;;;;;;;0.60;0.40;;;;;;;8.44;100.00;98643.41;15289902;19;20028;-59
2024/02/04 16:12:56;;;;;;;0.38;0.38;;;;;;;8.46;100.00;98641.44;15288819;19;20483;-57
2024/02/04 16:18:22;;;;;;;0.55;0.30;;;;;;;8.50;100.00;98652.75;15263005;19;20473;-59
2024/02/04 16:23:50;;;;;;;0.40;0.20;;;;;;;8.52;100.00;98619.44;15284285;19;20042;-60
2024/02/04 16:29:15;;;;;;;0.40;0.40;;;;;;;8.53;100.00;98618.41;15284044;19;20025;-59
2024/02/04 16:34:40;;;;;;;0.57;0.20;;;;;;;8.63;100.00;98621.97;15290600;19;20024;-59
2024/02/04 16:40:08;;;;;;;0.60;0.50;;;;;;;8.67;100.00;98635.06;15288944;19;20028;-58
2024/02/04 16:45:35;;;;;;;0.30;0.13;;;;;;;8.76;100.00;98631.53;15289145;19;20024;-59
2024/02/04 16:50:59;;;;;;;0.10;0.10;;;;;;;8.85;100.00;98621.75;15276739;19;20028;-58
2024/02/04 16:56:27;;;;;;;0.17;0.08;;;;;;;8.90;100.00;98628.38;15296979;19;20022;-56
2024/02/04 17:01:51;;;;;;;0.35;0.10;;;;;;;8.88;100.00;98605.34;15274221;19;20035;-57
2024/02/04 17:07:17;;;;;;;0.80;0.10;;;;;;;8.83;100.00;98616.53;15287064;19;20110;-58
2024/02/04 17:12:45;;;;;;;1.08;0.10;;;;;;;8.81;100.00;98597.03;15285745;19;20926;-57
2024/02/04 17:18:15;;;;;;;0.20;0.10;;;;;;;8.82;100.00;98598.72;15287750;19;20057;-56
2024/02/04 17:23:46;;;;;;;0.10;0.10;;;;;;;8.84;100.00;98604.78;15286481;19;20019;-56
2024/02/04 17:29:14;;;;;;;0.73;0.10;;;;;;;8.83;100.00;98599.53;15282843;19;20806;-58
2024/02/04 17:34:39;;;;;;;0.10;0.10;;;;;;;8.79;100.00;98610.59;15283437;19;20022;-58
2024/02/04 17:40:05;;;;;;;0.30;0.20;;;;;;;8.80;100.00;98622.19;15284184;19;20045;-56
2024/02/04 17:45:32;;;;;;;0.10;0.10;;;;;;;8.77;100.00;98617.09;15290164;19;20060;-57
2024/02/04 17:50:57;;;;;;;0.50;0.20;;;;;;;8.77;100.00;98617.09;15279914;19;20018;-57
2024/02/04 17:56:33;;;;;;;0.20;0.13;;;;;;;8.77;100.00;98622.47;15284772;19;20049;-57
2024/02/04 18:02:02;;;;;;;0.47;0.15;;;;;;;8.80;100.00;98606.06;15277682;19;20054;-58
2024/02/04 18:07:26;;;;;;;0.20;0.20;;;;;;;8.81;100.00;98613.13;15274708;19;20074;-57
2024/02/04 18:12:52;;;;;;;0.22;0.10;;;;;;;8.83;100.00;98621.91;15279608;19;20483;-54
2024/02/04 18:18:19;;;;;;;0.30;0.10;;;;;;;8.86;100.00;98596.56;15275621;19;20501;-58
2024/02/04 18:23:45;;;;;;;0.52;0.20;;;;;;;8.84;100.00;98607.47;15280762;19;20019;-57
2024/02/04 18:29:10;;;;;;;1.40;0.10;;;;;;;8.83;100.00;98599.53;15281192;19;20440;-57
2024/02/04 18:34:38;;;;;;;0.40;0.13;;;;;;;8.82;100.00;98587.13;15280441;19;20023;-56
2024/02/04 18:40:04;;;;;;;0.13;0.10;;;;;;;8.85;100.00;98614.56;15276450;19;20547;-56
2024/02/04 18:45:29;;;;;;;0.30;0.10;;;;;;;8.88;100.00;98614.25;15278761;19;20022;-57
2024/02/04 18:50:56;;;;;;;0.13;0.13;;;;;;;8.86;100.00;98607.31;15268886;19;20085;-55
2024/02/04 18:56:21;;;;;;;0.45;0.20;;;;;;;8.82;100.00;98609.47;15274242;19;20018;-58
2024/02/04 19:01:45;;;;;;;0.32;0.20;;;;;;;8.80;100.00;98611.44;15275276;19;20024;-57
2024/02/04 19:07:13;;;;;;;0.30;0.30;;;;;;;8.80;100.00;98614.13;15276208;19;20022;-58
2024/02/04 19:12:39;;;;;;;0.20;0.20;;;;;;;8.81;100.00;98594.34;15270139;19;20014;-56
2024/02/04 19:18:04;;;;;;;0.60;0.22;;;;;;;8.83;100.00;98578.91;15280653;19;20029;-58
2024/02/04 19:23:31;;;;;;;0.20;0.20;;;;;;;8.79;100.00;98599.84;15290115;19;20035;-57
2024/02/04 19:28:56;;;;;;;0.10;0.10;;;;;;;8.80;100.00;98600.69;15266233;19;20039;-53
2024/02/04 19:34:20;;;;;;;0.22;0.22;;;;;;;8.79;100.00;98599.84;15281715;19;20085;-55
2024/02/04 19:39:48;;;;;;;0.32;0.25;;;;;;;8.81;100.00;98597.03;15280359;19;20367;-52
2024/02/04 19:45:14;;;;;;;0.30;0.25;;;;;;;8.83;100.00;98595.03;15288141;19;20022;-53
2024/02/04 19:50:39;;;;;;;0.50;0.50;;;;;;;8.82;100.00;98589.81;15289437;19;20653;-52
2024/02/04 19:56:07;;;;;;;0.60;0.40;;;;;;;8.84;100.00;98596.75;15291572;19;20019;-48
2024/02/04 20:01:32;;;;;;;1.42;0.40;;;;;;;8.83;100.00;98600.41;15290316;19;20384;-54
2024/02/04 20:06:58;;;;;;;0.30;0.30;;;;;;;8.84;100.00;98602.09;15284344;19;20025;-53
2024/02/04 20:12:27;;;;;;;0.40;0.40;;;;;;;8.83;100.00;98588.81;15287057;19;20025;-52
2024/02/04 20:17:54;;;;;;;0.60;0.40;;;;;;;8.82;100.00;98585.28;15292175;19;20024;-48
2024/02/04 20:23:21;;;;;;;0.35;0.35;;;;;;;8.81;100.00;98574.69;15289980;19;20283;-52
2024/02/04 20:28:56;;;;;;;0.40;0.20;;;;;;;8.83;100.00;98597.72;15289213;19;20741;-48
2024/02/04 20:34:21;;;;;;;0.43;0.25;;;;;;;8.81;100.00;98572.00;15285907;19;20018;-49
2024/02/04 20:39:45;;;;;;;0.20;0.20;;;;;;;8.81;100.00;98570.16;15281652;19;20495;-52
2024/02/04 20:45:13;;;;;;;0.30;0.30;;;;;;;8.81;100.00;98564.78;15280117;19;20510;-50
2024/02/04 20:50:39;;;;;;;0.55;0.20;;;;;;;8.87;100.00;98564.22;15282636;19;20021;-50
2024/02/04 20:56:04;;;;;;;0.85;0.30;;;;;;;8.91;100.00;98565.59;15291810;19;20049;-52
2024/02/04 21:01:31;;;;;;;0.35;0.20;;;;;;;8.96;100.00;98556.25;15281174;19;20102;-52
2024/02/04 21:06:56;;;;;;;0.10;0.10;;;;;;;8.96;100.00;98549.03;15280049;19;20031;-52
2024/02/04 21:12:20;;;;;;;0.30;0.20;;;;;;;8.99;100.00;98539.84;15285430;19;20075;-51
2024/02/04 21:17:48;;;;;;;0.57;0.20;;;;;;;9.02;100.00;98542.22;15279843;19;20018;-53
2024/02/04 21:23:15;;;;;;;0.22;0.08;;;;;;;9.03;100.00;98531.31;15281204;19;20034;-51
2024/02/04 21:28:47;;;;;;;0.05;0.05;;;;;;;9.10;100.00;98515.47;15278049;19;20361;-50
2024/02/04 21:34:15;;;;;;;0.00;0.00;;;;;;;9.09;100.00;98519.13;15287194;19;20031;-50
2024/02/04 21:39:39;;;;;;;0.10;0.10;;;;;;;9.10;100.00;98502.84;15278108;19;20015;-50
2024/02/04 21:45:14;;;;;;;0.15;0.10;;;;;;;9.10;100.00;98493.97;15287332;19;20014;-51
2024/02/04 21:50:42;;;;;;;0.30;0.10;;;;;;;9.12;100.00;98494.63;15275519;19;20018;-50
2024/02/04 21:56:06;;;;;;;0.75;0.10;;;;;;;9.14;100.00;98481.88;15273350;19;20498;-52
2024/02/04 22:01:31;;;;;;;0.10;0.10;;;;;;;9.13;100.00;98471.31;15275733;19;20531;-52
2024/02/04 22:06:58;;;;;;;0.00;0.00;;;;;;;9.14;100.00;98473.00;15280012;19;20011;-51
2024/02/04 22:12:25;;;;;;;0.20;0.00;;;;;;;9.16;100.00;98463.78;15281223;19;20751;-50
2024/02/04 22:17:50;;;;;;;0.28;0.00;;;;;;;9.18;100.00;98459.09;15284752;19;20094;-50
2024/02/04 22:23:21;;;;;;;0.08;0.03;;;;;;;9.20;100.00;98440.97;15279767;19;20355;-50
2024/02/04 22:28:45;;;;;;;0.00;0.00;;;;;;;9.25;100.00;98427.06;15269477;19;20780;-49
2024/02/04 22:34:10;;;;;;;0.03;0.00;;;;;;;9.28;100.00;98431.28;15274210;19;20035;-52
2024/02/04 22:39:38;;;;;;;0.68;0.10;;;;;;;9.31;100.00;98431.81;15274957;19;20039;-52
2024/02/04 22:45:03;;;;;;;0.00;0.00;;;;;;;9.34;100.00;98446.84;15284066;19;20018;-52
2024/02/04 22:50:28;;;;;;;0.08;0.00;;;;;;;9.36;100.00;98417.91;15281656;19;20631;-53
2024/02/04 22:55:57;;;;;;;0.47;0.00;;;;;;;9.38;100.00;98395.28;15285193;19;20025;-50
2024/02/04 23:01:27;;;;;;;0.00;0.00;;;;;;;9.42;100.00;98411.94;15290878;19;20028;-51
2024/02/04 23:06:52;;;;;;;0.25;0.03;;;;;;;9.41;100.00;98368.06;15289507;19;20018;-49
2024/02/04 23:12:21;;;;;;;0.00;0.00;;;;;;;9.41;100.00;98383.38;15291978;19;20019;-49
2024/02/04 23:17:46;;;;;;;0.00;0.00;;;;;;;9.42;100.00;98428.06;15291148;19;20031;-50
2024/02/04 23:23:11;;;;;;;0.75;0.00;;;;;;;9.43;100.00;98386.75;15295569;19;20495;-51
2024/02/04 23:28:38;;;;;;;0.40;0.03;;;;;;;9.44;100.00;98366.94;15288386;19;20071;-49
2024/02/04 23:34:03;;;;;;;0.55;0.15;;;;;;;9.46;100.00;98386.44;15293597;19;20033;-52
2024/02/04 23:39:27;;;;;;;0.55;0.05;;;;;;;9.35;100.00;98357.13;15285595;19;20049;-52
2024/02/04 23:44:55;;;;;;;0.03;0.03;;;;;;;9.33;100.00;98375.25;15295149;19;20022;-48
2024/02/04 23:50:21;;;;;;;0.00;0.00;;;;;;;9.45;100.00;98387.44;15286116;19;20625;-48
2024/02/04 23:55:46;;;;;;;0.20;0.00;;;;;;;9.46;100.00;98402.59;15292839;19;20021;-49
